Time;durP1;ratioP1;P1;durP2;ratioP2;P2;SDS_P1;SDS_P2;PMS_P1;PMS_P2;Temp;Humidity;BMP_temperature;BMP_pressure;BME280_temperature;BME280_humidity;BME280_pressure;Samples;Min_cycle;Max_cycle;Signal;HPM_P1;HPM_P2
2023/06/26 00:00:49;;;;;;;9.90;8.90;;;21.10;83.60;;;;;;5937858;24;20469;-80
2023/06/26 00:03:16;;;;;;;9.50;8.80;;;21.10;84.40;;;;;;5938977;24;20532;-81
2023/06/26 00:05:43;;;;;;;9.47;8.67;;;21.00;85.20;;;;;;5938748;24;20505;-81
2023/06/26 00:08:12;;;;;;;9.60;8.80;;;21.00;85.90;;;;;;5937776;24;20441;-81
2023/06/26 00:10:39;;;;;;;9.70;8.90;;;21.00;86.60;;;;;;5930870;24;20575;-81
2023/06/26 00:13:06;;;;;;;9.10;8.30;;;21.00;87.30;;;;;;5935536;24;20449;-82
2023/06/26 00:15:33;;;;;;;9.83;9.07;;;20.90;87.80;;;;;;5950166;24;20494;-81
2023/06/26 00:18:00;;;;;;;9.23;8.43;;;20.90;88.30;;;;;;5942522;24;20446;-81
2023/06/26 00:20:27;;;;;;;10.87;9.97;;;20.90;88.90;;;;;;5942888;24;21083;-81
2023/06/26 00:22:55;;;;;;;10.03;9.23;;;20.90;89.50;;;;;;5945939;24;20450;-81
2023/06/26 00:25:23;;;;;;;9.70;8.83;;;20.90;90.00;;;;;;5939600;24;20611;-81
2023/06/26 00:27:51;;;;;;;9.33;8.53;;;20.80;90.50;;;;;;5941173;24;20876;-81
2023/06/26 00:30:18;;;;;;;9.40;8.57;;;20.80;90.50;;;;;;5938786;24;20462;-82
2023/06/26 00:32:45;;;;;;;10.20;9.30;;;20.80;90.60;;;;;;5942176;24;20441;-82
2023/06/26 00:35:12;;;;;;;10.67;9.80;;;20.70;90.80;;;;;;5942317;24;20442;-81
2023/06/26 00:37:39;;;;;;;9.30;8.50;;;20.70;90.90;;;;;;5943622;24;20529;-82
2023/06/26 00:40:07;;;;;;;9.70;8.87;;;20.70;91.10;;;;;;5933804;24;20572;-81
2023/06/26 00:42:36;;;;;;;9.47;8.67;;;20.60;91.30;;;;;;5932362;24;20443;-81
2023/06/26 00:45:03;;;;;;;9.70;8.93;;;20.60;91.50;;;;;;5934902;24;20439;-81
2023/06/26 00:47:30;;;;;;;9.57;8.77;;;20.60;91.60;;;;;;5936973;24;21905;-82
2023/06/26 00:49:58;;;;;;;9.80;8.90;;;20.50;91.80;;;;;;5937697;24;20507;-81
2023/06/26 00:52:25;;;;;;;10.23;9.33;;;20.50;92.00;;;;;;5939311;23;20601;-81
2023/06/26 00:54:52;;;;;;;9.00;8.30;;;20.40;92.10;;;;;;5939378;24;20524;-82
2023/06/26 00:57:19;;;;;;;9.17;8.47;;;20.30;92.30;;;;;;5941256;24;20553;-81
2023/06/26 00:59:48;;;;;;;9.70;8.80;;;20.30;92.40;;;;;;5943058;24;20592;-80
2023/06/26 01:02:17;;;;;;;9.33;8.63;;;20.20;92.60;;;;;;5938160;24;20446;-81
2023/06/26 01:04:46;;;;;;;9.87;9.07;;;20.20;92.60;;;;;;5943771;24;21711;-81
2023/06/26 01:07:14;;;;;;;9.70;8.80;;;20.20;92.70;;;;;;5936987;24;20520;-81
2023/06/26 01:09:43;;;;;;;8.63;7.97;;;20.10;92.90;;;;;;5943749;24;20966;-81
2023/06/26 01:12:10;;;;;;;8.53;7.83;;;20.00;93.10;;;;;;5938651;24;20441;-81
2023/06/26 01:14:37;;;;;;;9.10;8.30;;;20.00;93.40;;;;;;5944125;24;20452;-81
2023/06/26 01:17:07;;;;;;;8.93;8.23;;;20.00;93.50;;;;;;5940227;24;20526;-80
2023/06/26 01:19:35;;;;;;;8.47;7.83;;;19.90;93.70;;;;;;5945245;24;20489;-82
2023/06/26 01:22:15;;;;;;;8.17;7.47;;;19.90;94.00;;;;;;5936011;24;20527;-81
2023/06/26 01:25:01;;;;;;;8.27;7.57;;;19.80;94.30;;;;;;5942042;24;20447;-81
2023/06/26 01:27:32;;;;;;;8.90;8.30;;;19.80;94.60;;;;;;5943317;24;20448;-81
2023/06/26 01:30:03;;;;;;;8.70;8.00;;;19.70;95.00;;;;;;5939642;24;20458;-81
2023/06/26 01:32:31;;;;;;;8.63;7.93;;;19.60;95.40;;;;;;5937346;24;20456;-81
2023/06/26 01:34:58;;;;;;;9.20;8.50;;;19.50;95.80;;;;;;5938122;24;20471;-81
2023/06/26 01:37:26;;;;;;;9.30;8.30;;;19.50;96.10;;;;;;5937268;24;20478;-81
2023/06/26 01:39:53;;;;;;;9.50;8.60;;;19.40;96.60;;;;;;5933828;24;20467;-81
2023/06/26 01:42:20;;;;;;;10.20;9.20;;;19.40;96.90;;;;;;5939746;24;20972;-82
2023/06/26 01:44:52;;;;;;;9.90;9.00;;;19.40;97.30;;;;;;5940733;24;20438;-81
2023/06/26 01:47:26;;;;;;;9.70;8.70;;;19.30;97.70;;;;;;5939485;24;20450;-82
2023/06/26 01:49:57;;;;;;;9.33;8.53;;;19.30;98.10;;;;;;5938743;24;20463;-81
2023/06/26 01:52:33;;;;;;;10.00;9.20;;;19.30;98.50;;;;;;5945287;24;20439;-82
2023/06/26 01:55:06;;;;;;;10.10;9.20;;;19.30;98.80;;;;;;5940717;24;20439;-80
2023/06/26 01:57:35;;;;;;;9.57;8.77;;;19.30;99.20;;;;;;5940068;24;20473;-80
2023/06/26 02:00:05;;;;;;;9.90;9.10;;;19.40;99.50;;;;;;5936777;24;20830;-81
2023/06/26 02:02:32;;;;;;;9.97;9.17;;;19.40;99.60;;;;;;5932787;24;20440;-81
2023/06/26 02:04:59;;;;;;;10.10;9.30;;;19.40;99.70;;;;;;5935391;24;20438;-81
2023/06/26 02:07:27;;;;;;;9.20;8.40;;;19.40;99.90;;;;;;5932067;24;20486;-81
2023/06/26 02:09:54;;;;;;;9.63;8.80;;;19.40;99.90;;;;;;5939891;24;20459;-81
2023/06/26 02:12:21;;;;;;;9.50;8.70;;;19.40;99.90;;;;;;5937971;24;20463;-81
2023/06/26 02:14:49;;;;;;;9.40;8.60;;;19.40;99.90;;;;;;5940234;24;21010;-81
2023/06/26 02:17:18;;;;;;;9.00;8.30;;;19.30;99.90;;;;;;5936263;24;20475;-81
2023/06/26 02:19:47;;;;;;;9.57;8.67;;;19.30;99.90;;;;;;5932996;24;20575;-81
2023/06/26 02:22:14;;;;;;;9.67;8.87;;;19.20;99.90;;;;;;5940128;24;20473;-81
2023/06/26 02:24:42;;;;;;;9.03;8.30;;;19.20;99.90;;;;;;5939378;24;20463;-81
2023/06/26 02:27:09;;;;;;;9.83;9.03;;;19.20;99.90;;;;;;5941288;24;20953;-81
2023/06/26 02:29:36;;;;;;;10.00;9.10;;;19.10;99.90;;;;;;5946998;23;20475;-80
2023/06/26 02:32:04;;;;;;;9.30;8.40;;;19.10;99.90;;;;;;5937164;24;20449;-81
2023/06/26 02:34:33;;;;;;;10.50;9.50;;;19.00;99.90;;;;;;5937668;24;20467;-82
2023/06/26 02:37:00;;;;;;;9.70;8.90;;;19.00;99.90;;;;;;5934767;24;21013;-81
2023/06/26 02:39:27;;;;;;;10.17;9.27;;;18.90;99.90;;;;;;5938631;24;21040;-80
2023/06/26 02:41:54;;;;;;;9.43;8.53;;;18.90;99.90;;;;;;5937085;24;20526;-81
2023/06/26 02:44:22;;;;;;;9.83;9.03;;;18.80;99.90;;;;;;5942881;24;20489;-80
2023/06/26 02:46:49;;;;;;;9.40;8.70;;;18.70;99.90;;;;;;5940009;24;20451;-80
2023/06/26 02:49:16;;;;;;;11.20;10.17;;;18.70;99.90;;;;;;5938274;24;20569;-81
2023/06/26 02:51:44;;;;;;;10.70;9.80;;;18.70;99.90;;;;;;5939105;24;20447;-81
2023/06/26 02:54:11;;;;;;;9.23;8.50;;;18.70;99.90;;;;;;5938714;23;20438;-81
2023/06/26 02:56:39;;;;;;;9.90;9.10;;;18.70;99.90;;;;;;5937705;24;20466;-81
2023/06/26 02:59:06;;;;;;;9.90;9.10;;;18.60;99.90;;;;;;5941525;23;20496;-81
2023/06/26 03:01:33;;;;;;;10.83;9.83;;;18.60;99.90;;;;;;5939149;24;20473;-80
2023/06/26 03:04:01;;;;;;;9.57;8.77;;;18.60;99.90;;;;;;5936142;24;20444;-81
2023/06/26 03:06:28;;;;;;;9.80;8.97;;;18.60;99.90;;;;;;5932062;24;20450;-81
2023/06/26 03:08:57;;;;;;;9.83;9.03;;;18.50;99.90;;;;;;5939367;24;20508;-81
2023/06/26 03:11:23;;;;;;;10.93;10.03;;;18.60;99.90;;;;;;5950014;24;20439;-81
2023/06/26 03:13:51;;;;;;;9.60;8.80;;;18.50;99.90;;;;;;5942739;24;20446;-81
2023/06/26 03:16:18;;;;;;;10.17;9.30;;;18.50;99.90;;;;;;5941096;24;20441;-81
2023/06/26 03:18:45;;;;;;;9.83;8.93;;;18.50;99.90;;;;;;5945590;24;20499;-80
2023/06/26 03:21:12;;;;;;;10.70;9.60;;;18.50;99.90;;;;;;5951616;23;20493;-80
2023/06/26 03:23:39;;;;;;;9.93;9.13;;;18.50;99.90;;;;;;5935635;24;20844;-81
2023/06/26 03:26:07;;;;;;;11.10;10.10;;;18.50;99.90;;;;;;5952913;24;20521;-81
2023/06/26 03:28:35;;;;;;;9.50;8.73;;;18.50;99.90;;;;;;5942399;24;20568;-81
2023/06/26 03:31:02;;;;;;;10.70;9.70;;;18.40;99.90;;;;;;5936157;24;20525;-81
2023/06/26 03:33:28;;;;;;;10.73;9.70;;;18.40;99.90;;;;;;5935266;24;20436;-81
2023/06/26 03:35:56;;;;;;;9.67;8.80;;;18.40;99.90;;;;;;5936547;24;20455;-81
2023/06/26 03:38:23;;;;;;;10.90;9.90;;;18.40;99.90;;;;;;5945454;24;20975;-81
2023/06/26 03:40:50;;;;;;;11.00;10.03;;;18.40;99.90;;;;;;5941545;24;20443;-81
2023/06/26 03:43:19;;;;;;;11.33;10.33;;;18.40;99.90;;;;;;5949947;24;20452;-81
2023/06/26 03:45:46;;;;;;;11.60;10.60;;;18.40;99.90;;;;;;5937124;24;20440;-81
2023/06/26 03:48:14;;;;;;;10.83;9.90;;;18.40;99.90;;;;;;5949913;23;20509;-81
2023/06/26 03:50:41;;;;;;;11.60;10.53;;;18.40;99.90;;;;;;5947487;24;20458;-81
2023/06/26 03:53:08;;;;;;;10.67;9.80;;;18.40;99.90;;;;;;5940979;24;20435;-81
2023/06/26 03:55:35;;;;;;;10.83;9.93;;;18.50;99.90;;;;;;5938281;24;20526;-81
2023/06/26 03:58:02;;;;;;;12.00;11.00;;;18.50;99.90;;;;;;5934316;23;20562;-81
2023/06/26 04:00:31;;;;;;;11.30;10.37;;;18.50;99.90;;;;;;5935037;24;20547;-81
2023/06/26 04:02:58;;;;;;;10.43;9.53;;;18.50;99.90;;;;;;5936011;24;21027;-81
2023/06/26 04:05:25;;;;;;;19.50;10.43;;;18.50;99.90;;;;;;5936413;24;20459;-81
2023/06/26 04:07:53;;;;;;;10.60;9.70;;;18.50;99.90;;;;;;5941035;24;21169;-81
2023/06/26 04:10:20;;;;;;;10.57;9.67;;;18.60;99.90;;;;;;5945801;24;20482;-81
2023/06/26 04:12:48;;;;;;;11.80;10.80;;;18.60;99.90;;;;;;5950431;24;20474;-80
2023/06/26 04:15:15;;;;;;;11.50;10.50;;;18.60;99.90;;;;;;5938414;24;20518;-81
2023/06/26 04:17:43;;;;;;;11.90;10.80;;;18.70;99.90;;;;;;5931080;23;20493;-81
2023/06/26 04:20:11;;;;;;;11.10;10.10;;;18.70;99.90;;;;;;5940085;24;20577;-81
2023/06/26 04:22:38;;;;;;;11.10;10.10;;;18.70;99.90;;;;;;5934187;23;20439;-82
2023/06/26 04:25:06;;;;;;;11.50;10.50;;;18.70;99.90;;;;;;5931608;24;20546;-82
2023/06/26 04:27:33;;;;;;;10.97;10.07;;;18.80;99.90;;;;;;5933884;24;20534;-82
2023/06/26 04:30:00;;;;;;;11.50;10.50;;;18.90;99.90;;;;;;5923976;24;21014;-83
2023/06/26 04:32:27;;;;;;;11.77;10.67;;;18.90;99.90;;;;;;5931223;24;20435;-79
2023/06/26 04:34:56;;;;;;;11.93;10.83;;;18.90;99.90;;;;;;5932504;24;20447;-80
2023/06/26 04:37:24;;;;;;;11.80;10.40;;;18.90;99.90;;;;;;5929143;24;20512;-81
2023/06/26 04:39:51;;;;;;;11.07;10.10;;;19.00;99.90;;;;;;5926938;24;20455;-82
2023/06/26 04:42:18;;;;;;;11.20;10.30;;;19.00;99.90;;;;;;5929786;24;20570;-83
2023/06/26 04:44:45;;;;;;;10.90;9.90;;;19.00;99.90;;;;;;5941987;24;21029;-82
2023/06/26 04:47:14;;;;;;;10.30;9.30;;;19.10;99.90;;;;;;5930153;24;20533;-82
2023/06/26 04:49:43;;;;;;;10.20;9.40;;;19.10;99.90;;;;;;5959271;23;20471;-83
2023/06/26 04:52:13;;;;;;;10.90;9.97;;;19.20;99.90;;;;;;5940569;24;20438;-82
2023/06/26 04:54:40;;;;;;;10.20;9.30;;;19.20;99.90;;;;;;5934822;24;20589;-85
2023/06/26 04:57:08;;;;;;;11.17;10.17;;;19.20;99.90;;;;;;5938661;24;20546;-83
2023/06/26 04:59:35;;;;;;;10.17;9.37;;;19.30;99.90;;;;;;5945693;24;20462;-81
2023/06/26 05:02:02;;;;;;;10.47;9.57;;;19.30;99.90;;;;;;5947908;24;20944;-81
2023/06/26 05:04:30;;;;;;;10.53;9.73;;;19.30;99.90;;;;;;5933567;24;20488;-84
2023/06/26 05:06:57;;;;;;;11.40;10.47;;;19.40;99.90;;;;;;5943346;24;20471;-84
2023/06/26 05:09:25;;;;;;;9.80;9.00;;;19.50;99.90;;;;;;5937470;24;20585;-82
2023/06/26 05:11:52;;;;;;;11.30;10.30;;;19.50;99.90;;;;;;5937224;24;20455;-82
2023/06/26 05:14:19;;;;;;;10.33;9.43;;;19.60;99.90;;;;;;5937090;24;20439;-81
2023/06/26 05:16:46;;;;;;;10.40;9.50;;;19.60;99.90;;;;;;5939504;24;20493;-83
2023/06/26 05:19:13;;;;;;;11.40;10.40;;;19.70;99.90;;;;;;5940793;23;20562;-83
2023/06/26 05:21:41;;;;;;;12.13;10.73;;;19.80;99.90;;;;;;5936752;24;20448;-84
2023/06/26 05:24:09;;;;;;;11.53;10.53;;;19.90;99.90;;;;;;5938407;24;20785;-82
2023/06/26 05:26:39;;;;;;;10.40;9.50;;;20.00;99.90;;;;;;5949323;24;20986;-82
2023/06/26 05:29:06;;;;;;;11.70;10.70;;;20.10;99.90;;;;;;5939778;24;20471;-87
2023/06/26 05:31:38;;;;;;;10.77;9.87;;;20.20;99.90;;;;;;5942991;24;20449;-82
2023/06/26 05:34:06;;;;;;;10.30;9.40;;;20.30;99.90;;;;;;5936405;24;20473;-80
2023/06/26 05:36:36;;;;;;;10.40;9.53;;;20.40;99.90;;;;;;5947651;24;20584;-79
2023/06/26 05:39:03;;;;;;;10.80;9.80;;;20.40;99.90;;;;;;5942550;24;20481;-81
2023/06/26 05:41:31;;;;;;;10.57;9.67;;;20.50;99.90;;;;;;5940980;24;20441;-80
2023/06/26 05:43:59;;;;;;;10.80;9.80;;;20.60;99.90;;;;;;5942603;24;20529;-81
2023/06/26 05:46:26;;;;;;;10.93;9.83;;;20.70;99.90;;;;;;5948806;24;20446;-81
2023/06/26 05:48:53;;;;;;;10.63;9.10;;;20.80;99.90;;;;;;5944723;24;20823;-81
2023/06/26 05:51:20;;;;;;;11.10;10.10;;;20.90;99.90;;;;;;5933598;24;20521;-79
2023/06/26 05:53:48;;;;;;;10.30;9.27;;;21.10;99.90;;;;;;5935903;24;20574;-83
2023/06/26 05:56:15;;;;;;;10.77;9.83;;;21.20;99.90;;;;;;5933906;24;20530;-82
2023/06/26 05:58:44;;;;;;;10.87;9.87;;;21.30;99.90;;;;;;5939505;23;20481;-81
2023/06/26 06:01:12;;;;;;;10.70;9.80;;;21.30;99.90;;;;;;5932013;24;20487;-81
2023/06/26 06:03:40;;;;;;;10.90;9.90;;;21.40;99.90;;;;;;5938078;24;20443;-82
2023/06/26 06:06:07;;;;;;;11.00;10.00;;;21.40;99.90;;;;;;5927001;24;20436;-81
2023/06/26 06:08:34;;;;;;;10.53;9.33;;;21.50;99.90;;;;;;5941586;24;20469;-81
2023/06/26 06:11:02;;;;;;;10.07;9.17;;;21.60;99.90;;;;;;5942801;24;20995;-81
2023/06/26 06:13:30;;;;;;;10.67;9.67;;;21.70;99.90;;;;;;5944721;24;20442;-81
2023/06/26 06:15:57;;;;;;;11.00;9.30;;;21.80;99.90;;;;;;5941881;24;20446;-81
2023/06/26 06:18:25;;;;;;;10.53;9.63;;;21.90;99.90;;;;;;5924387;24;20483;-82
2023/06/26 06:20:52;;;;;;;10.13;9.13;;;21.90;99.90;;;;;;5937563;24;20967;-81
2023/06/26 06:23:19;;;;;;;10.40;9.50;;;22.00;99.90;;;;;;5945696;24;20535;-81
2023/06/26 06:25:46;;;;;;;10.47;9.47;;;22.10;99.90;;;;;;5936743;24;20452;-81
2023/06/26 06:28:16;;;;;;;9.73;8.77;;;22.20;99.90;;;;;;5928166;24;20460;-81
2023/06/26 06:30:43;;;;;;;9.70;8.90;;;22.30;99.90;;;;;;5940114;24;20478;-80
2023/06/26 06:33:10;;;;;;;10.23;9.23;;;22.40;99.90;;;;;;5940220;24;21169;-80
2023/06/26 06:35:38;;;;;;;9.63;8.77;;;22.50;99.90;;;;;;5932897;24;20515;-79
2023/06/26 06:38:05;;;;;;;9.63;8.83;;;22.70;99.90;;;;;;5923322;24;20473;-79
2023/06/26 06:40:33;;;;;;;9.33;8.53;;;22.80;99.90;;;;;;5932963;24;20796;-79
2023/06/26 06:43:00;;;;;;;10.00;9.10;;;22.90;99.90;;;;;;5934637;24;20514;-79
2023/06/26 06:45:27;;;;;;;10.03;9.03;;;23.00;99.90;;;;;;5935599;24;20455;-79
2023/06/26 06:47:54;;;;;;;10.33;9.33;;;23.20;99.90;;;;;;5935503;24;20535;-79
2023/06/26 06:50:21;;;;;;;9.83;9.03;;;23.30;99.90;;;;;;5929784;24;20443;-79
2023/06/26 06:52:49;;;;;;;9.43;8.60;;;23.50;99.90;;;;;;5939384;24;20772;-80
2023/06/26 06:55:16;;;;;;;9.50;8.67;;;23.60;99.90;;;;;;5932449;24;20972;-79
2023/06/26 06:57:43;;;;;;;9.00;8.17;;;23.70;99.90;;;;;;5929294;24;20463;-78
2023/06/26 07:00:14;;;;;;;9.00;8.30;;;23.80;99.90;;;;;;5934960;24;20477;-77
2023/06/26 07:02:45;;;;;;;9.63;8.80;;;24.00;99.90;;;;;;5936406;24;20450;-78
2023/06/26 07:05:12;;;;;;;9.07;8.33;;;24.10;99.90;;;;;;5934300;24;20451;-78
2023/06/26 07:07:40;;;;;;;10.00;9.10;;;24.20;99.90;;;;;;5932727;24;20876;-79
2023/06/26 07:10:10;;;;;;;9.20;8.40;;;24.40;99.90;;;;;;5927221;24;20499;-78
2023/06/26 07:12:38;;;;;;;10.03;9.07;;;24.50;99.90;;;;;;5930636;24;20509;-79
2023/06/26 07:15:06;;;;;;;9.83;8.97;;;24.70;99.90;;;;;;5942168;24;20480;-78
2023/06/26 07:17:34;;;;;;;8.90;8.20;;;25.00;99.90;;;;;;5933456;24;20450;-78
2023/06/26 07:20:04;;;;;;;9.40;8.60;;;25.10;99.90;;;;;;5945654;24;20447;-77
2023/06/26 07:22:31;;;;;;;9.63;8.70;;;25.40;99.90;;;;;;5937832;24;20478;-78
2023/06/26 07:24:58;;;;;;;8.47;7.77;;;25.50;99.90;;;;;;5930530;24;20483;-78
2023/06/26 07:27:26;;;;;;;8.90;8.00;;;25.60;99.90;;;;;;5927824;24;20458;-79
2023/06/26 07:29:54;;;;;;;10.53;9.20;;;25.80;99.90;;;;;;5933294;24;20869;-79
2023/06/26 07:32:21;;;;;;;8.57;7.87;;;25.90;99.90;;;;;;5939862;24;20520;-79
2023/06/26 07:34:48;;;;;;;9.80;9.00;;;26.20;99.90;;;;;;5934415;24;20495;-78
2023/06/26 07:37:15;;;;;;;9.03;8.10;;;26.30;99.90;;;;;;5938707;24;20517;-79
2023/06/26 07:39:42;;;;;;;8.83;8.07;;;26.50;99.90;;;;;;5944292;24;20479;-79
2023/06/26 07:42:09;;;;;;;8.17;7.53;;;26.60;99.90;;;;;;5940789;24;22240;-79
2023/06/26 07:44:37;;;;;;;9.60;7.10;;;26.70;98.80;;;;;;5941448;24;20970;-78
2023/06/26 07:47:05;;;;;;;7.90;7.30;;;26.90;97.90;;;;;;5941840;24;20450;-79
2023/06/26 07:49:34;;;;;;;8.13;7.43;;;27.40;98.00;;;;;;5926303;24;20474;-78
2023/06/26 07:52:01;;;;;;;7.50;6.90;;;27.80;96.90;;;;;;5923993;24;20478;-79
2023/06/26 07:54:29;;;;;;;7.57;6.97;;;28.00;94.20;;;;;;5939954;24;21019;-79
2023/06/26 07:56:57;;;;;;;7.70;7.10;;;28.00;94.00;;;;;;5939328;24;20447;-77
2023/06/26 07:59:26;;;;;;;7.53;6.90;;;28.10;93.90;;;;;;5940551;24;20583;-77
2023/06/26 08:01:56;;;;;;;7.77;7.07;;;28.00;93.60;;;;;;5931330;24;20498;-78
2023/06/26 08:04:25;;;;;;;7.40;6.77;;;28.00;92.80;;;;;;5926496;24;20522;-77
2023/06/26 08:06:53;;;;;;;6.70;6.23;;;28.10;92.90;;;;;;5939255;24;20443;-76
2023/06/26 08:09:22;;;;;;;7.00;6.40;;;28.30;92.30;;;;;;5935091;24;20522;-77
2023/06/26 08:11:49;;;;;;;7.10;6.40;;;28.60;93.00;;;;;;5930706;24;20451;-77
2023/06/26 08:14:17;;;;;;;6.83;6.23;;;28.80;91.50;;;;;;5933138;24;20443;-78
2023/06/26 08:16:45;;;;;;;6.97;6.40;;;28.80;91.30;;;;;;5934476;24;20478;-78
2023/06/26 08:19:14;;;;;;;6.73;6.03;;;28.90;90.80;;;;;;5927686;24;20977;-78
2023/06/26 08:21:42;;;;;;;7.57;6.80;;;29.00;90.30;;;;;;5937966;24;20515;-77
2023/06/26 08:24:09;;;;;;;7.63;6.30;;;29.00;90.30;;;;;;5935072;24;20495;-77
2023/06/26 08:26:37;;;;;;;7.10;6.50;;;29.10;89.90;;;;;;5943935;24;20446;-78
2023/06/26 08:29:07;;;;;;;7.73;7.03;;;29.30;89.80;;;;;;5921829;24;20464;-77
2023/06/26 08:31:35;;;;;;;6.83;6.30;;;29.10;88.60;;;;;;5936750;24;21018;-77
2023/06/26 08:34:02;;;;;;;7.20;6.70;;;29.00;88.40;;;;;;5940845;24;20459;-77
2023/06/26 08:36:31;;;;;;;7.37;6.77;;;29.00;89.90;;;;;;5933348;24;20788;-78
2023/06/26 08:38:58;;;;;;;6.93;6.40;;;29.20;89.30;;;;;;5935309;24;20479;-76
2023/06/26 08:41:26;;;;;;;6.37;5.97;;;29.30;90.00;;;;;;5927251;24;20446;-74
2023/06/26 08:43:53;;;;;;;7.07;6.57;;;29.40;88.50;;;;;;5931755;24;20431;-77
2023/06/26 08:46:20;;;;;;;7.17;6.57;;;29.60;87.90;;;;;;5943634;24;20505;-77
2023/06/26 08:48:50;;;;;;;6.97;6.40;;;29.70;87.80;;;;;;5930313;24;20461;-75
2023/06/26 08:51:18;;;;;;;6.30;5.80;;;29.80;87.30;;;;;;5937693;24;20435;-77
2023/06/26 08:53:56;;;;;;;6.47;5.87;;;29.80;86.10;;;;;;5928885;24;20444;-78
2023/06/26 08:56:25;;;;;;;7.27;6.67;;;29.90;87.30;;;;;;5938904;24;20439;-77
2023/06/26 08:58:53;;;;;;;10.03;6.63;;;30.10;87.20;;;;;;5933499;24;20914;-77
2023/06/26 09:01:21;;;;;;;7.10;6.50;;;30.00;85.90;;;;;;5932789;24;20444;-77
2023/06/26 09:03:48;;;;;;;6.30;5.90;;;30.00;85.80;;;;;;5931541;24;20855;-77
2023/06/26 09:06:15;;;;;;;7.20;6.37;;;30.10;87.20;;;;;;5931739;24;20507;-77
2023/06/26 09:08:42;;;;;;;6.77;6.17;;;30.10;85.50;;;;;;5939821;23;20466;-78
2023/06/26 09:11:11;;;;;;;6.93;6.37;;;30.20;85.30;;;;;;5931796;24;20446;-77
2023/06/26 09:13:38;;;;;;;6.50;6.10;;;30.00;85.80;;;;;;5926144;24;20482;-77
2023/06/26 09:16:08;;;;;;;6.90;6.40;;;30.20;86.30;;;;;;5930539;24;20791;-77
2023/06/26 09:18:35;;;;;;;7.17;6.07;;;30.20;84.90;;;;;;5924847;24;20470;-77
2023/06/26 09:21:08;;;;;;;6.60;6.10;;;30.40;85.00;;;;;;5933439;24;20497;-76
2023/06/26 09:23:35;;;;;;;7.20;6.70;;;30.50;84.80;;;;;;5930595;24;20451;-75
2023/06/26 09:26:03;;;;;;;6.30;5.80;;;30.70;83.10;;;;;;5927960;24;20432;-72
2023/06/26 09:28:33;;;;;;;6.30;5.80;;;30.90;83.00;;;;;;5935945;24;20455;-76
2023/06/26 09:31:04;;;;;;;6.90;6.30;;;31.10;81.30;;;;;;5938529;24;20439;-76
2023/06/26 09:33:36;;;;;;;5.73;5.20;;;31.20;78.60;;;;;;5933048;24;20447;-77
2023/06/26 09:36:07;;;;;;;6.00;5.50;;;31.30;79.50;;;;;;5932527;24;20446;-77
2023/06/26 09:38:35;;;;;;;6.43;5.93;;;31.30;78.50;;;;;;5937738;24;20474;-76
2023/06/26 09:41:04;;;;;;;6.20;5.70;;;31.40;78.60;;;;;;5937311;24;20443;-75
2023/06/26 09:43:32;;;;;;;6.47;5.90;;;31.40;77.50;;;;;;5927445;24;21042;-76
2023/06/26 09:46:01;;;;;;;6.70;6.10;;;31.20;77.30;;;;;;5941189;24;20439;-75
2023/06/26 09:48:28;;;;;;;6.20;5.80;;;31.10;77.20;;;;;;5940052;24;20606;-74
2023/06/26 09:50:56;;;;;;;7.23;5.87;;;31.30;77.90;;;;;;5935559;24;20449;-74
2023/06/26 09:53:26;;;;;;;6.80;6.20;;;31.40;77.90;;;;;;5935376;24;20463;-74
2023/06/26 09:55:53;;;;;;;6.83;6.37;;;31.30;78.00;;;;;;5940605;24;20443;-74
2023/06/26 09:58:20;;;;;;;7.00;6.50;;;31.00;78.30;;;;;;5943370;24;20543;-75
2023/06/26 10:00:49;;;;;;;5.93;5.53;;;31.00;78.00;;;;;;5957009;23;20438;-73
2023/06/26 10:03:16;;;;;;;10.87;6.50;;;31.00;78.90;;;;;;5933158;24;20439;-74
2023/06/26 10:05:44;;;;;;;6.50;6.00;;;31.30;79.00;;;;;;5937026;24;20498;-72
2023/06/26 10:08:14;;;;;;;7.13;6.63;;;31.60;78.90;;;;;;5924320;24;20541;-73
2023/06/26 10:10:41;;;;;;;6.63;6.23;;;31.70;78.00;;;;;;5924394;24;20470;-74
2023/06/26 10:13:16;;;;;;;6.87;6.37;;;31.70;77.70;;;;;;5931813;24;20446;-73
2023/06/26 10:15:46;;;;;;;7.63;6.70;;;31.70;77.00;;;;;;5931968;24;20451;-75
2023/06/26 10:18:16;;;;;;;7.83;7.07;;;31.60;78.10;;;;;;5940484;24;20458;-74
2023/06/26 10:20:46;;;;;;;8.17;7.47;;;31.60;78.30;;;;;;5942436;24;20506;-75
2023/06/26 10:23:14;;;;;;;7.10;6.50;;;31.60;78.80;;;;;;5933092;24;20463;-75
2023/06/26 10:25:45;;;;;;;7.77;7.17;;;31.70;77.00;;;;;;5942366;24;20435;-74
2023/06/26 10:28:13;;;;;;;7.27;6.70;;;31.60;77.40;;;;;;5927526;24;20466;-74
2023/06/26 10:30:42;;;;;;;7.30;6.70;;;31.80;77.60;;;;;;5942779;24;20839;-74
2023/06/26 10:33:10;;;;;;;6.40;5.90;;;31.80;76.90;;;;;;5931827;24;20444;-74
2023/06/26 10:35:44;;;;;;;6.87;6.33;;;31.60;75.40;;;;;;5937923;24;20781;-74
2023/06/26 10:38:11;;;;;;;7.67;6.87;;;31.10;77.10;;;;;;5935960;24;20455;-74
2023/06/26 10:40:42;;;;;;;6.47;6.07;;;31.00;76.50;;;;;;5935969;24;20482;-74
2023/06/26 10:43:11;;;;;;;7.50;7.00;;;31.20;76.30;;;;;;5934695;24;20765;-75
2023/06/26 10:45:44;;;;;;;7.17;6.67;;;31.10;76.20;;;;;;5935004;24;20462;-67
2023/06/26 10:48:13;;;;;;;7.30;6.57;;;31.10;77.00;;;;;;5929076;24;20542;-88
2023/06/26 10:50:40;;;;;;;7.57;6.90;;;30.90;78.00;;;;;;5938820;24;20482;-75
2023/06/26 10:53:15;;;;;;;7.13;6.53;;;31.00;78.30;;;;;;5934188;24;20466;-75
2023/06/26 10:55:44;;;;;;;7.23;6.70;;;31.10;78.10;;;;;;5932133;24;20450;-75
2023/06/26 10:58:41;;;;;;;7.23;6.73;;;31.40;77.50;;;;;;5932435;24;20458;-76
2023/06/26 11:01:22;;;;;;;7.40;6.90;;;31.40;77.80;;;;;;5922718;24;20774;-75
2023/06/26 11:04:02;;;;;;;7.40;6.90;;;31.20;79.50;;;;;;5925612;24;20449;-75
2023/06/26 11:06:31;;;;;;;7.33;6.73;;;31.20;80.30;;;;;;5927922;24;20443;-74
2023/06/26 11:09:08;;;;;;;7.27;6.77;;;31.10;80.20;;;;;;5926382;24;21424;-75
2023/06/26 11:12:01;;;;;;;7.87;7.37;;;31.00;80.80;;;;;;5934182;24;20470;-75
2023/06/26 11:14:29;;;;;;;8.03;7.33;;;30.80;81.60;;;;;;5928431;24;20519;-75
2023/06/26 11:16:58;;;;;;;7.20;6.70;;;30.70;82.60;;;;;;5935513;24;20424;-74
2023/06/26 11:19:27;;;;;;;7.07;6.47;;;30.80;81.80;;;;;;5933048;24;20466;-75
2023/06/26 11:22:00;;;;;;;8.37;7.67;;;31.00;82.10;;;;;;5921572;24;20467;-75
2023/06/26 11:24:31;;;;;;;7.20;6.70;;;31.20;81.30;;;;;;5932303;24;20937;-75
2023/06/26 11:27:02;;;;;;;7.47;6.87;;;31.30;80.90;;;;;;5936406;24;20440;-75
2023/06/26 11:29:29;;;;;;;6.90;6.40;;;31.10;81.10;;;;;;5924879;24;20603;-75
2023/06/26 11:32:01;;;;;;;7.03;6.53;;;31.00;81.60;;;;;;5932573;24;20457;-75
2023/06/26 11:34:31;;;;;;;7.63;6.77;;;31.10;81.70;;;;;;5933020;24;20447;-75
2023/06/26 11:37:01;;;;;;;7.43;6.73;;;31.20;82.00;;;;;;5934902;24;20462;-75
2023/06/26 11:39:30;;;;;;;7.07;6.57;;;31.80;81.90;;;;;;5941881;24;20796;-75
2023/06/26 11:41:58;;;;;;;7.93;7.33;;;32.10;80.80;;;;;;5928895;24;21014;-75
2023/06/26 11:44:29;;;;;;;7.63;6.93;;;32.40;81.30;;;;;;5924171;24;20444;-75
2023/06/26 11:46:57;;;;;;;7.83;7.33;;;32.70;80.90;;;;;;5931739;24;20506;-75
2023/06/26 11:49:26;;;;;;;8.53;6.90;;;33.00;80.10;;;;;;5941798;24;20481;-75
2023/06/26 11:51:55;;;;;;;6.90;6.40;;;32.50;80.30;;;;;;5923927;24;20526;-74
2023/06/26 11:54:26;;;;;;;7.33;6.70;;;31.50;82.00;;;;;;5927402;24;20436;-74
2023/06/26 11:56:57;;;;;;;7.83;7.20;;;30.90;83.90;;;;;;5939394;24;20550;-74
2023/06/26 11:59:25;;;;;;;8.00;7.30;;;30.40;84.60;;;;;;5928738;24;20471;-75
2023/06/26 12:01:53;;;;;;;8.30;7.50;;;30.40;86.90;;;;;;5927103;24;20439;-75
2023/06/26 12:04:21;;;;;;;7.60;6.90;;;30.70;85.80;;;;;;5922370;24;20974;-75
2023/06/26 12:06:50;;;;;;;9.43;7.40;;;30.80;85.00;;;;;;5933678;24;20495;-75
2023/06/26 12:09:19;;;;;;;7.87;7.27;;;31.10;84.90;;;;;;5938938;24;20629;-75
2023/06/26 12:11:49;;;;;;;7.63;6.93;;;31.80;83.20;;;;;;5939862;24;20464;-75
2023/06/26 12:14:19;;;;;;;7.70;6.97;;;32.20;82.80;;;;;;5927265;24;20503;-75
2023/06/26 12:16:46;;;;;;;7.07;6.57;;;32.30;82.20;;;;;;5933693;24;20574;-75
2023/06/26 12:19:14;;;;;;;7.33;6.63;;;32.30;80.40;;;;;;5933813;24;20459;-75
2023/06/26 12:21:52;;;;;;;7.60;6.90;;;32.30;80.20;;;;;;5938416;24;20531;-75
2023/06/26 12:24:21;;;;;;;6.50;6.10;;;31.60;80.80;;;;;;5927367;24;20548;-75
2023/06/26 12:26:51;;;;;;;7.27;6.73;;;32.10;81.60;;;;;;5931695;24;20795;-75
2023/06/26 12:29:20;;;;;;;7.90;7.20;;;32.00;80.10;;;;;;5934106;24;20796;-74
2023/06/26 12:31:51;;;;;;;7.87;7.27;;;32.00;80.90;;;;;;5934296;24;20447;-75
2023/06/26 12:34:21;;;;;;;7.70;7.00;;;32.40;80.10;;;;;;5933602;24;20443;-75
2023/06/26 12:36:50;;;;;;;7.07;6.57;;;32.40;79.00;;;;;;5924966;24;20603;-74
2023/06/26 12:39:17;;;;;;;7.87;7.13;;;31.70;80.40;;;;;;5928962;24;20548;-75
2023/06/26 12:41:48;;;;;;;7.50;6.90;;;31.70;81.70;;;;;;5939810;24;20451;-74
2023/06/26 12:44:21;;;;;;;7.30;6.80;;;31.80;81.20;;;;;;5933654;24;20439;-74
2023/06/26 12:46:50;;;;;;;7.37;6.77;;;32.10;79.50;;;;;;5940030;24;20443;-74
2023/06/26 12:49:17;;;;;;;8.10;7.13;;;32.60;78.50;;;;;;5942344;24;20459;-74